sensor_id;sensor_type;location;lat;lon;timestamp;pressure;altitude;pressure_sealevel;temperature;humidity
23176;BME280;19910;42.652;23.332;2023-11-18T00:00:08;93910.50;;;5.76;100.00
23176;BME280;19910;42.652;23.332;2023-11-18T00:02:39;93908.59;;;5.77;100.00
23176;BME280;19910;42.652;23.332;2023-11-18T00:05:08;93904.00;;;5.77;100.00
23176;BME280;19910;42.652;23.332;2023-11-18T00:07:35;93902.28;;;5.72;100.00
23176;BME280;19910;42.652;23.332;2023-11-18T00:10:02;93906.06;;;5.71;100.00
23176;BME280;19910;42.652;23.332;2023-11-18T00:12:31;93895.34;;;5.71;100.00
23176;BME280;19910;42.652;23.332;2023-11-18T00:15:00;93912.06;;;5.68;100.00
23176;BME280;19910;42.652;23.332;2023-11-18T00:17:28;93933.72;;;5.63;100.00
23176;BME280;19910;42.652;23.332;2023-11-18T00:19:55;93940.50;;;5.61;100.00
23176;BME280;19910;42.652;23.332;2023-11-18T00:22:24;93938.47;;;5.66;100.00
23176;BME280;19910;42.652;23.332;2023-11-18T00:24:54;93950.44;;;5.60;100.00
23176;BME280;19910;42.652;23.332;2023-11-18T00:27:21;93918.84;;;5.57;100.00
23176;BME280;19910;42.652;23.332;2023-11-18T00:29:51;93901.63;;;5.58;100.00
23176;BME280;19910;42.652;23.332;2023-11-18T00:32:19;93891.03;;;5.53;100.00
23176;BME280;19910;42.652;23.332;2023-11-18T00:34:47;93905.09;;;5.50;100.00
23176;BME280;19910;42.652;23.332;2023-11-18T00:37:15;93912.81;;;5.52;100.00
23176;BME280;19910;42.652;23.332;2023-11-18T00:39:42;93905.09;;;5.50;100.00
23176;BME280;19910;42.652;23.332;2023-11-18T00:42:11;93902.72;;;5.49;100.00
23176;BME280;19910;42.652;23.332;2023-11-18T00:44:38;93915.81;;;5.50;100.00
23176;BME280;19910;42.652;23.332;2023-11-18T00:47:07;93908.72;;;5.46;100.00
23176;BME280;19910;42.652;23.332;2023-11-18T00:49:37;93915.34;;;5.40;100.00
23176;BME280;19910;42.652;23.332;2023-11-18T00:52:05;93910.41;;;5.33;100.00
23176;BME280;19910;42.652;23.332;2023-11-18T00:54:34;93924.63;;;5.33;100.00
23176;BME280;19910;42.652;23.332;2023-11-18T00:57:04;93924.00;;;5.28;100.00
23176;BME280;19910;42.652;23.332;2023-11-18T00:59:31;93920.50;;;5.27;100.00
23176;BME280;19910;42.652;23.332;2023-11-18T01:01:58;93918.28;;;5.21;100.00
23176;BME280;19910;42.652;23.332;2023-11-18T01:04:28;93924.13;;;5.23;100.00
23176;BME280;19910;42.652;23.332;2023-11-18T01:06:58;93924.44;;;5.21;100.00
23176;BME280;19910;42.652;23.332;2023-11-18T01:09:25;93927.28;;;5.16;100.00
23176;BME280;19910;42.652;23.332;2023-11-18T01:11:52;93931.69;;;5.21;100.00
23176;BME280;19910;42.652;23.332;2023-11-18T01:14:19;93925.22;;;5.22;100.00
23176;BME280;19910;42.652;23.332;2023-11-18T01:16:48;93937.53;;;5.23;100.00
23176;BME280;19910;42.652;23.332;2023-11-18T01:19:15;93952.06;;;5.22;100.00
23176;BME280;19910;42.652;23.332;2023-11-18T01:21:45;93943.22;;;5.21;100.00
23176;BME280;19910;42.652;23.332;2023-11-18T01:24:12;93954.91;;;5.17;100.00
23176;BME280;19910;42.652;23.332;2023-11-18T01:26:41;93933.44;;;5.17;100.00
23176;BME280;19910;42.652;23.332;2023-11-18T01:29:08;93949.22;;;5.18;100.00
23176;BME280;19910;42.652;23.332;2023-11-18T01:31:35;93935.81;;;5.18;100.00
23176;BME280;19910;42.652;23.332;2023-11-18T01:34:04;93928.97;;;5.04;100.00
23176;BME280;19910;42.652;23.332;2023-11-18T01:36:31;93953.28;;;5.07;100.00
23176;BME280;19910;42.652;23.332;2023-11-18T01:39:02;93952.03;;;5.05;100.00
23176;BME280;19910;42.652;23.332;2023-11-18T01:41:30;93946.81;;;5.08;100.00
23176;BME280;19910;42.652;23.332;2023-11-18T01:43:58;93947.44;;;5.05;100.00
23176;BME280;19910;42.652;23.332;2023-11-18T01:46:25;93934.03;;;5.05;100.00
23176;BME280;19910;42.652;23.332;2023-11-18T01:48:55;93936.16;;;4.94;100.00
23176;BME280;19910;42.652;23.332;2023-11-18T01:51:24;93942.88;;;5.06;100.00
23176;BME280;19910;42.652;23.332;2023-11-18T01:53:51;93935.91;;;5.05;100.00
23176;BME280;19910;42.652;23.332;2023-11-18T01:56:19;93938.13;;;5.03;100.00
23176;BME280;19910;42.652;23.332;2023-11-18T01:58:50;93948.69;;;5.08;100.00
23176;BME280;19910;42.652;23.332;2023-11-18T02:01:18;93943.63;;;5.06;100.00
23176;BME280;19910;42.652;23.332;2023-11-18T02:03:47;93945.06;;;5.04;100.00
23176;BME280;19910;42.652;23.332;2023-11-18T02:06:14;93944.50;;;4.84;100.00
23176;BME280;19910;42.652;23.332;2023-11-18T02:08:42;93949.38;;;4.82;100.00
23176;BME280;19910;42.652;23.332;2023-11-18T02:11:15;93955.53;;;4.83;100.00
23176;BME280;19910;42.652;23.332;2023-11-18T02:13:48;93953.16;;;4.81;100.00
23176;BME280;19910;42.652;23.332;2023-11-18T02:16:16;93935.75;;;4.70;100.00
23176;BME280;19910;42.652;23.332;2023-11-18T02:18:47;93946.97;;;4.72;100.00
23176;BME280;19910;42.652;23.332;2023-11-18T02:21:17;93948.66;;;4.68;100.00
23176;BME280;19910;42.652;23.332;2023-11-18T02:23:44;93948.66;;;4.68;100.00
23176;BME280;19910;42.652;23.332;2023-11-18T02:26:21;93962.56;;;4.70;100.00
23176;BME280;19910;42.652;23.332;2023-11-18T02:28:48;93958.91;;;4.66;100.00
23176;BME280;19910;42.652;23.332;2023-11-18T02:31:20;93952.09;;;4.60;100.00
23176;BME280;19910;42.652;23.332;2023-11-18T02:33:52;93951.13;;;4.56;100.00
23176;BME280;19910;42.652;23.332;2023-11-18T02:36:26;93950.13;;;4.52;100.00
23176;BME280;19910;42.652;23.332;2023-11-18T02:39:04;93944.78;;;4.52;100.00
23176;BME280;19910;42.652;23.332;2023-11-18T02:41:35;93936.25;;;4.50;100.00
23176;BME280;19910;42.652;23.332;2023-11-18T02:44:03;93946.34;;;4.53;100.00
23176;BME280;19910;42.652;23.332;2023-11-18T02:46:34;93929.44;;;4.44;100.00
23176;BME280;19910;42.652;23.332;2023-11-18T02:49:01;93934.38;;;4.50;100.00
23176;BME280;19910;42.652;23.332;2023-11-18T02:51:29;93960.50;;;4.45;100.00
23176;BME280;19910;42.652;23.332;2023-11-18T02:53:57;93953.94;;;4.51;100.00
23176;BME280;19910;42.652;23.332;2023-11-18T02:56:24;93954.16;;;4.41;99.60
23176;BME280;19910;42.652;23.332;2023-11-18T02:58:53;93948.47;;;4.34;100.00
23176;BME280;19910;42.652;23.332;2023-11-18T03:01:20;93960.56;;;4.31;100.00
23176;BME280;19910;42.652;23.332;2023-11-18T03:03:47;93970.84;;;4.38;100.00
23176;BME280;19910;42.652;23.332;2023-11-18T03:06:14;93976.22;;;4.38;100.00
23176;BME280;19910;42.652;23.332;2023-11-18T03:08:41;93982.56;;;4.42;99.95
23176;BME280;19910;42.652;23.332;2023-11-18T03:11:08;93971.00;;;4.33;99.62
23176;BME280;19910;42.652;23.332;2023-11-18T03:13:38;93986.00;;;4.34;100.00
23176;BME280;19910;42.652;23.332;2023-11-18T03:16:08;94003.66;;;4.35;99.28
23176;BME280;19910;42.652;23.332;2023-11-18T03:18:37;93999.13;;;4.21;98.65
23176;BME280;19910;42.652;23.332;2023-11-18T03:21:06;94015.22;;;4.21;99.22
23176;BME280;19910;42.652;23.332;2023-11-18T03:23:33;94011.84;;;4.16;98.82
23176;BME280;19910;42.652;23.332;2023-11-18T03:26:00;94011.06;;;4.15;98.39
23176;BME280;19910;42.652;23.332;2023-11-18T03:28:26;94019.09;;;4.15;99.69
23176;BME280;19910;42.652;23.332;2023-11-18T03:30:53;93994.22;;;4.01;98.74
23176;BME280;19910;42.652;23.332;2023-11-18T03:33:21;94006.53;;;4.02;98.59
23176;BME280;19910;42.652;23.332;2023-11-18T03:35:48;94005.75;;;3.88;98.50
23176;BME280;19910;42.652;23.332;2023-11-18T03:38:15;94017.56;;;3.87;99.03
23176;BME280;19910;42.652;23.332;2023-11-18T03:40:43;94015.31;;;3.80;98.88
23176;BME280;19910;42.652;23.332;2023-11-18T03:43:11;94010.34;;;3.74;98.28
23176;BME280;19910;42.652;23.332;2023-11-18T03:45:38;94036.84;;;3.75;98.57
23176;BME280;19910;42.652;23.332;2023-11-18T03:48:06;94023.75;;;3.74;98.73
23176;BME280;19910;42.652;23.332;2023-11-18T03:50:34;94037.13;;;3.74;98.21
23176;BME280;19910;42.652;23.332;2023-11-18T03:53:01;94017.09;;;3.57;97.86
23176;BME280;19910;42.652;23.332;2023-11-18T03:55:28;94031.50;;;3.62;98.55
23176;BME280;19910;42.652;23.332;2023-11-18T03:57:56;94024.44;;;3.66;98.24
23176;BME280;19910;42.652;23.332;2023-11-18T04:00:23;94014.03;;;3.50;98.21
23176;BME280;19910;42.652;23.332;2023-11-18T04:02:55;94016.31;;;3.43;98.60
23176;BME280;19910;42.652;23.332;2023-11-18T04:05:22;94016.94;;;3.40;98.48
23176;BME280;19910;42.652;23.332;2023-11-18T04:07:50;94034.97;;;3.48;98.35
23176;BME280;19910;42.652;23.332;2023-11-18T04:10:17;94037.13;;;3.46;98.19
23176;BME280;19910;42.652;23.332;2023-11-18T04:12:46;94030.41;;;3.49;97.97
23176;BME280;19910;42.652;23.332;2023-11-18T04:15:14;94032.78;;;3.37;97.13
23176;BME280;19910;42.652;23.332;2023-11-18T04:17:41;94033.47;;;3.42;97.21
23176;BME280;19910;42.652;23.332;2023-11-18T04:20:10;94032.38;;;3.43;96.46
23176;BME280;19910;42.652;23.332;2023-11-18T04:22:39;94044.78;;;3.39;96.98
23176;BME280;19910;42.652;23.332;2023-11-18T04:25:08;94038.13;;;3.37;96.63
23176;BME280;19910;42.652;23.332;2023-11-18T04:27:35;94035.47;;;3.37;96.28
23176;BME280;19910;42.652;23.332;2023-11-18T04:30:03;94038.63;;;3.39;96.50
23176;BME280;19910;42.652;23.332;2023-11-18T04:32:30;94040.31;;;3.35;96.37
23176;BME280;19910;42.652;23.332;2023-11-18T04:34:58;94029.59;;;3.35;95.92
23176;BME280;19910;42.652;23.332;2023-11-18T04:37:25;94040.31;;;3.35;96.46
23176;BME280;19910;42.652;23.332;2023-11-18T04:39:52;94061.72;;;3.35;96.72
23176;BME280;19910;42.652;23.332;2023-11-18T04:42:20;94049.72;;;3.32;95.86
23176;BME280;19910;42.652;23.332;2023-11-18T04:44:47;94056.16;;;3.31;96.42
23176;BME280;19910;42.652;23.332;2023-11-18T04:47:14;94049.44;;;3.34;96.79
23176;BME280;19910;42.652;23.332;2023-11-18T04:49:43;94059.13;;;3.30;96.61
23176;BME280;19910;42.652;23.332;2023-11-18T04:52:10;94066.97;;;3.26;96.56
23176;BME280;19910;42.652;23.332;2023-11-18T04:54:37;94066.56;;;3.19;95.61
23176;BME280;19910;42.652;23.332;2023-11-18T04:57:04;94061.41;;;3.22;95.70
23176;BME280;19910;42.652;23.332;2023-11-18T04:59:31;94055.56;;;3.20;95.77
23176;BME280;19910;42.652;23.332;2023-11-18T05:01:58;94056.56;;;3.25;96.20
23176;BME280;19910;42.652;23.332;2023-11-18T05:04:27;94048.84;;;3.23;94.69
23176;BME280;19910;42.652;23.332;2023-11-18T05:06:54;94043.97;;;3.25;95.12
23176;BME280;19910;42.652;23.332;2023-11-18T05:09:22;94041.69;;;3.18;95.42
23176;BME280;19910;42.652;23.332;2023-11-18T05:11:49;94046.66;;;3.25;95.28
23176;BME280;19910;42.652;23.332;2023-11-18T05:14:16;94036.53;;;3.22;95.40
23176;BME280;19910;42.652;23.332;2023-11-18T05:16:45;94046.66;;;3.25;94.60
23176;BME280;19910;42.652;23.332;2023-11-18T05:19:12;94032.34;;;3.16;94.22
23176;BME280;19910;42.652;23.332;2023-11-18T05:21:39;94037.34;;;3.22;94.04
23176;BME280;19910;42.652;23.332;2023-11-18T05:24:06;94037.34;;;3.22;93.02
23176;BME280;19910;42.652;23.332;2023-11-18T05:26:34;94040.88;;;3.18;93.11
23176;BME280;19910;42.652;23.332;2023-11-18T05:29:00;94047.03;;;3.18;94.00
23176;BME280;19910;42.652;23.332;2023-11-18T05:31:28;94033.34;;;3.20;94.01
23176;BME280;19910;42.652;23.332;2023-11-18T05:33:58;94046.22;;;3.18;93.40
23176;BME280;19910;42.652;23.332;2023-11-18T05:36:25;94031.97;;;3.09;92.87
23176;BME280;19910;42.652;23.332;2023-11-18T05:38:55;94038.31;;;3.13;92.82
23176;BME280;19910;42.652;23.332;2023-11-18T05:41:22;94028.69;;;3.12;92.77
23176;BME280;19910;42.652;23.332;2023-11-18T05:43:53;94021.19;;;3.14;91.90
23176;BME280;19910;42.652;23.332;2023-11-18T05:46:22;94024.44;;;3.11;92.43
23176;BME280;19910;42.652;23.332;2023-11-18T05:48:51;94032.84;;;3.18;91.65
23176;BME280;19910;42.652;23.332;2023-11-18T05:51:21;94034.63;;;3.09;92.10
23176;BME280;19910;42.652;23.332;2023-11-18T05:53:48;94045.03;;;3.10;92.92
23176;BME280;19910;42.652;23.332;2023-11-18T05:56:16;94043.25;;;3.06;92.53
23176;BME280;19910;42.652;23.332;2023-11-18T05:58:43;94027.69;;;3.08;93.13
23176;BME280;19910;42.652;23.332;2023-11-18T06:01:10;94029.56;;;3.07;92.57
23176;BME280;19910;42.652;23.332;2023-11-18T06:03:37;94032.19;;;3.12;92.81
23176;BME280;19910;42.652;23.332;2023-11-18T06:06:06;94010.94;;;3.16;91.03
23176;BME280;19910;42.652;23.332;2023-11-18T06:08:35;94020.28;;;3.18;91.28
23176;BME280;19910;42.652;23.332;2023-11-18T06:11:02;94047.94;;;3.14;91.69
23176;BME280;19910;42.652;23.332;2023-11-18T06:13:39;94029.22;;;3.14;91.48
23176;BME280;19910;42.652;23.332;2023-11-18T06:16:09;94041.88;;;3.22;91.63
23176;BME280;19910;42.652;23.332;2023-11-18T06:18:40;94041.88;;;3.08;92.32
23176;BME280;19910;42.652;23.332;2023-11-18T06:21:06;94026.19;;;3.02;93.51
23176;BME280;19910;42.652;23.332;2023-11-18T06:23:35;94048.50;;;2.97;94.35
23176;BME280;19910;42.652;23.332;2023-11-18T06:26:04;94043.78;;;3.35;99.48
23176;BME280;19910;42.652;23.332;2023-11-18T06:28:31;94051.81;;;3.63;99.43
23176;BME280;19910;42.652;23.332;2023-11-18T06:30:59;94038.13;;;3.64;96.83
23176;BME280;19910;42.652;23.332;2023-11-18T06:33:26;94040.03;;;3.50;94.04
23176;BME280;19910;42.652;23.332;2023-11-18T06:35:53;94041.09;;;3.63;93.65
23176;BME280;19910;42.652;23.332;2023-11-18T06:38:23;94038.44;;;3.63;92.82
23176;BME280;19910;42.652;23.332;2023-11-18T06:40:51;94037.94;;;3.61;92.53
23176;BME280;19910;42.652;23.332;2023-11-18T06:43:19;94045.09;;;3.51;91.99
23176;BME280;19910;42.652;23.332;2023-11-18T06:45:46;94032.28;;;3.62;91.41
23176;BME280;19910;42.652;23.332;2023-11-18T06:48:14;94034.38;;;3.51;91.01
23176;BME280;19910;42.652;23.332;2023-11-18T06:50:47;94041.31;;;3.52;90.72
23176;BME280;19910;42.652;23.332;2023-11-18T06:53:14;94050.16;;;3.53;90.73
23176;BME280;19910;42.652;23.332;2023-11-18T06:55:41;94033.16;;;3.57;89.58
23176;BME280;19910;42.652;23.332;2023-11-18T06:58:10;94040.69;;;3.55;88.42
23176;BME280;19910;42.652;23.332;2023-11-18T07:00:38;94055.28;;;3.49;88.38
23176;BME280;19910;42.652;23.332;2023-11-18T07:03:05;94059.84;;;3.63;88.76
23176;BME280;19910;42.652;23.332;2023-11-18T07:05:32;94053.41;;;3.64;87.66
23176;BME280;19910;42.652;23.332;2023-11-18T07:07:59;94056.75;;;3.55;88.05
23176;BME280;19910;42.652;23.332;2023-11-18T07:10:26;94053.00;;;3.56;88.41
23176;BME280;19910;42.652;23.332;2023-11-18T07:12:54;94064.63;;;3.66;87.44
23176;BME280;19910;42.652;23.332;2023-11-18T07:15:22;94068.38;;;3.65;87.64
23176;BME280;19910;42.652;23.332;2023-11-18T07:17:51;94058.75;;;3.50;87.98
23176;BME280;19910;42.652;23.332;2023-11-18T07:20:18;94067.09;;;3.48;88.08
23176;BME280;19910;42.652;23.332;2023-11-18T07:22:45;94077.78;;;3.48;89.07
23176;BME280;19910;42.652;23.332;2023-11-18T07:25:12;94045.09;;;3.51;88.29
23176;BME280;19910;42.652;23.332;2023-11-18T07:27:39;94067.47;;;3.55;88.87
23176;BME280;19910;42.652;23.332;2023-11-18T07:30:06;94058.97;;;3.53;88.55
23176;BME280;19910;42.652;23.332;2023-11-18T07:32:37;94084.94;;;3.39;89.01
23176;BME280;19910;42.652;23.332;2023-11-18T07:35:06;94077.00;;;3.48;89.34
23176;BME280;19910;42.652;23.332;2023-11-18T07:37:35;94080.97;;;3.50;89.18
23176;BME280;19910;42.652;23.332;2023-11-18T07:40:03;94082.66;;;3.46;88.56
23176;BME280;19910;42.652;23.332;2023-11-18T07:42:32;94091.19;;;3.48;88.96
23176;BME280;19910;42.652;23.332;2023-11-18T07:45:00;94088.59;;;3.43;89.48
23176;BME280;19910;42.652;23.332;2023-11-18T07:47:30;94094.66;;;3.49;89.73
23176;BME280;19910;42.652;23.332;2023-11-18T07:50:04;94061.53;;;3.45;89.74
23176;BME280;19910;42.652;23.332;2023-11-18T07:52:31;94081.16;;;3.40;90.24
23176;BME280;19910;42.652;23.332;2023-11-18T07:54:58;94074.13;;;3.44;90.36
23176;BME280;19910;42.652;23.332;2023-11-18T07:57:25;94074.63;;;3.46;89.49
23176;BME280;19910;42.652;23.332;2023-11-18T07:59:53;94074.41;;;3.43;89.59
23176;BME280;19910;42.652;23.332;2023-11-18T08:02:20;94075.81;;;3.40;89.90
23176;BME280;19910;42.652;23.332;2023-11-18T08:04:47;94077.41;;;3.41;89.25
23176;BME280;19910;42.652;23.332;2023-11-18T08:07:16;94094.06;;;3.38;88.22
23176;BME280;19910;42.652;23.332;2023-11-18T08:09:44;94095.81;;;3.29;88.47
23176;BME280;19910;42.652;23.332;2023-11-18T08:12:11;94108.31;;;3.34;89.52
23176;BME280;19910;42.652;23.332;2023-11-18T08:14:38;94092.53;;;3.32;88.31
23176;BME280;19910;42.652;23.332;2023-11-18T08:17:06;94103.16;;;3.37;88.15
23176;BME280;19910;42.652;23.332;2023-11-18T08:19:33;94100.59;;;3.46;88.11
23176;BME280;19910;42.652;23.332;2023-11-18T08:22:02;94105.66;;;3.47;87.51
23176;BME280;19910;42.652;23.332;2023-11-18T08:24:30;94102.28;;;3.55;87.74
23176;BME280;19910;42.652;23.332;2023-11-18T08:26:58;94092.06;;;3.57;87.02
23176;BME280;19910;42.652;23.332;2023-11-18T08:29:26;94090.31;;;3.67;87.49
23176;BME280;19910;42.652;23.332;2023-11-18T08:31:56;94073.25;;;3.76;87.64
23176;BME280;19910;42.652;23.332;2023-11-18T08:34:41;94073.25;;;3.63;85.55
23176;BME280;19910;42.652;23.332;2023-11-18T08:37:09;94076.81;;;3.72;86.96
23176;BME280;19910;42.652;23.332;2023-11-18T08:39:37;94091.69;;;3.78;86.62
23176;BME280;19910;42.652;23.332;2023-11-18T08:42:05;94089.59;;;3.75;87.03
23176;BME280;19910;42.652;23.332;2023-11-18T08:44:33;94086.94;;;3.75;87.38
23176;BME280;19910;42.652;23.332;2023-11-18T08:46:59;94098.06;;;3.82;86.70
23176;BME280;19910;42.652;23.332;2023-11-18T08:49:31;94088.03;;;3.74;87.11
23176;BME280;19910;42.652;23.332;2023-11-18T08:51:59;94103.41;;;3.82;87.07
23176;BME280;19910;42.652;23.332;2023-11-18T08:54:27;94098.63;;;3.65;86.78
23176;BME280;19910;42.652;23.332;2023-11-18T08:57:04;94114.09;;;3.54;86.96
23176;BME280;19910;42.652;23.332;2023-11-18T08:59:49;94104.78;;;3.52;86.80
23176;BME280;19910;42.652;23.332;2023-11-18T09:02:17;94107.25;;;3.48;87.16
23176;BME280;19910;42.652;23.332;2023-11-18T09:04:48;94101.00;;;3.53;87.11
23176;BME280;19910;42.652;23.332;2023-11-18T09:07:14;94091.25;;;3.43;86.62
23176;BME280;19910;42.652;23.332;2023-11-18T09:09:41;94116.28;;;3.52;86.53
23176;BME280;19910;42.652;23.332;2023-11-18T09:12:11;94111.50;;;3.49;87.10
23176;BME280;19910;42.652;23.332;2023-11-18T09:14:40;94104.09;;;3.60;86.99
23176;BME280;19910;42.652;23.332;2023-11-18T09:17:08;94105.56;;;3.52;86.86
23176;BME280;19910;42.652;23.332;2023-11-18T09:19:35;94093.88;;;3.62;87.13
23176;BME280;19910;42.652;23.332;2023-11-18T09:22:03;94091.47;;;3.61;86.58
23176;BME280;19910;42.652;23.332;2023-11-18T09:24:38;94102.50;;;3.73;86.39
23176;BME280;19910;42.652;23.332;2023-11-18T09:27:07;94104.97;;;3.83;86.52
23176;BME280;19910;42.652;23.332;2023-11-18T09:29:36;94100.41;;;3.70;86.38
23176;BME280;19910;42.652;23.332;2023-11-18T09:32:06;94111.03;;;3.75;86.64
23176;BME280;19910;42.652;23.332;2023-11-18T09:34:32;94098.22;;;3.72;86.22
23176;BME280;19910;42.652;23.332;2023-11-18T09:36:59;94101.53;;;3.69;86.64
23176;BME280;19910;42.652;23.332;2023-11-18T09:39:25;94104.22;;;3.82;86.10
23176;BME280;19910;42.652;23.332;2023-11-18T09:42:07;94108.78;;;3.82;86.70
23176;BME280;19910;42.652;23.332;2023-11-18T09:44:37;94091.09;;;3.81;86.01
23176;BME280;19910;42.652;23.332;2023-11-18T09:47:07;94097.44;;;3.85;85.37
23176;BME280;19910;42.652;23.332;2023-11-18T09:49:40;94096.84;;;3.88;85.41
23176;BME280;19910;42.652;23.332;2023-11-18T09:52:15;94103.22;;;3.78;85.15
23176;BME280;19910;42.652;23.332;2023-11-18T09:54:50;94096.06;;;3.74;85.70
23176;BME280;19910;42.652;23.332;2023-11-18T09:57:23;94092.28;;;3.75;84.63
23176;BME280;19910;42.652;23.332;2023-11-18T10:00:01;94099.63;;;3.83;85.49
23176;BME280;19910;42.652;23.332;2023-11-18T10:02:45;94101.03;;;3.67;85.23
23176;BME280;19910;42.652;23.332;2023-11-18T10:05:12;94069.69;;;3.53;84.87
23176;BME280;19910;42.652;23.332;2023-11-18T10:07:41;94099.22;;;3.62;85.49
23176;BME280;19910;42.652;23.332;2023-11-18T10:10:09;94080.56;;;3.71;85.04
23176;BME280;19910;42.652;23.332;2023-11-18T10:12:41;94076.41;;;3.65;85.13
23176;BME280;19910;42.652;23.332;2023-11-18T10:15:14;94098.06;;;3.68;85.36
23176;BME280;19910;42.652;23.332;2023-11-18T10:17:44;94097.44;;;3.71;85.08
23176;BME280;19910;42.652;23.332;2023-11-18T10:20:21;94102.00;;;3.71;84.88
23176;BME280;19910;42.652;23.332;2023-11-18T10:23:06;94112.91;;;3.61;85.05
23176;BME280;19910;42.652;23.332;2023-11-18T10:25:35;94099.13;;;3.67;84.48
23176;BME280;19910;42.652;23.332;2023-11-18T10:28:06;94107.34;;;3.71;84.11
23176;BME280;19910;42.652;23.332;2023-11-18T10:30:44;94099.31;;;3.71;84.79
23176;BME280;19910;42.652;23.332;2023-11-18T10:33:14;94108.75;;;3.68;84.34
23176;BME280;19910;42.652;23.332;2023-11-18T10:35:49;94096.06;;;3.74;83.76
23176;BME280;19910;42.652;23.332;2023-11-18T10:38:17;94105.09;;;3.78;83.98
23176;BME280;19910;42.652;23.332;2023-11-18T10:40:44;94100.81;;;3.77;83.52
23176;BME280;19910;42.652;23.332;2023-11-18T10:43:12;94091.69;;;3.78;82.54
23176;BME280;19910;42.652;23.332;2023-11-18T10:45:43;94071.66;;;3.75;82.48
23176;BME280;19910;42.652;23.332;2023-11-18T10:48:12;94071.25;;;3.82;82.14
23176;BME280;19910;42.652;23.332;2023-11-18T10:50:42;94089.22;;;3.95;82.82
23176;BME280;19910;42.652;23.332;2023-11-18T10:53:12;94083.84;;;3.95;82.96
23176;BME280;19910;42.652;23.332;2023-11-18T10:55:45;94065.09;;;4.09;82.33
23176;BME280;19910;42.652;23.332;2023-11-18T10:58:14;94088.00;;;4.01;81.96
23176;BME280;19910;42.652;23.332;2023-11-18T11:00:49;94073.13;;;4.67;85.28
23176;BME280;19910;42.652;23.332;2023-11-18T11:03:17;94057.47;;;4.83;84.90
23176;BME280;19910;42.652;23.332;2023-11-18T11:05:44;94075.53;;;4.33;81.47
23176;BME280;19910;42.652;23.332;2023-11-18T11:08:13;94056.88;;;4.27;81.45
23176;BME280;19910;42.652;23.332;2023-11-18T11:10:42;94067.25;;;4.20;81.97
23176;BME280;19910;42.652;23.332;2023-11-18T11:13:09;94058.69;;;4.18;81.65
23176;BME280;19910;42.652;23.332;2023-11-18T11:15:41;94055.91;;;4.23;81.54
23176;BME280;19910;42.652;23.332;2023-11-18T11:18:20;94068.06;;;4.07;81.70
23176;BME280;19910;42.652;23.332;2023-11-18T11:20:57;94071.44;;;3.99;81.51
23176;BME280;19910;42.652;23.332;2023-11-18T11:23:38;94050.63;;;3.96;81.58
23176;BME280;19910;42.652;23.332;2023-11-18T11:26:23;94048.41;;;3.98;81.61
23176;BME280;19910;42.652;23.332;2023-11-18T11:29:04;94040.63;;;4.10;81.11
23176;BME280;19910;42.652;23.332;2023-11-18T11:31:38;94053.16;;;4.15;80.92
23176;BME280;19910;42.652;23.332;2023-11-18T11:34:12;94046.63;;;4.07;81.22
23176;BME280;19910;42.652;23.332;2023-11-18T11:36:47;94062.69;;;4.07;81.73
23176;BME280;19910;42.652;23.332;2023-11-18T11:39:17;94043.47;;;3.91;80.96
23176;BME280;19910;42.652;23.332;2023-11-18T11:41:51;94061.72;;;3.89;81.95
23176;BME280;19910;42.652;23.332;2023-11-18T11:44:20;94074.59;;;4.01;82.14
23176;BME280;19910;42.652;23.332;2023-11-18T11:46:50;94057.25;;;3.85;82.17
23176;BME280;19910;42.652;23.332;2023-11-18T11:49:21;94058.34;;;3.84;82.83
23176;BME280;19910;42.652;23.332;2023-11-18T11:51:59;94050.13;;;3.94;82.55
23176;BME280;19910;42.652;23.332;2023-11-18T11:54:34;94045.41;;;4.13;82.19
23176;BME280;19910;42.652;23.332;2023-11-18T11:57:03;94050.56;;;4.23;81.49
23176;BME280;19910;42.652;23.332;2023-11-18T11:59:55;94060.63;;;4.40;81.37
23176;BME280;19910;42.652;23.332;2023-11-18T12:02:23;94059.06;;;4.25;81.28
23176;BME280;19910;42.652;23.332;2023-11-18T12:04:55;94056.69;;;4.24;81.01
23176;BME280;19910;42.652;23.332;2023-11-18T12:07:25;94083.09;;;4.31;82.08
23176;BME280;19910;42.652;23.332;2023-11-18T12:09:57;94054.97;;;4.06;81.71
23176;BME280;19910;42.652;23.332;2023-11-18T12:12:27;94058.22;;;4.16;81.42
23176;BME280;19910;42.652;23.332;2023-11-18T12:14:57;94056.03;;;4.18;81.69
23176;BME280;19910;42.652;23.332;2023-11-18T12:18:10;94043.72;;;4.17;80.97
23176;BME280;19910;42.652;23.332;2023-11-18T12:20:41;94058.31;;;4.11;81.12
23176;BME280;19910;42.652;23.332;2023-11-18T12:23:14;94060.28;;;4.19;82.01
23176;BME280;19910;42.652;23.332;2023-11-18T12:25:41;94065.75;;;4.14;81.62
23176;BME280;19910;42.652;23.332;2023-11-18T12:28:11;94064.47;;;4.12;82.04
23176;BME280;19910;42.652;23.332;2023-11-18T12:30:52;94055.44;;;4.21;81.77
23176;BME280;19910;42.652;23.332;2023-11-18T12:33:23;94068.81;;;4.21;81.13
23176;BME280;19910;42.652;23.332;2023-11-18T12:39:26;94063.66;;;4.11;81.67
23176;BME280;19910;42.652;23.332;2023-11-18T12:42:01;94058.72;;;4.05;82.13
23176;BME280;19910;42.652;23.332;2023-11-18T12:44:39;94070.38;;;4.36;82.21
23176;BME280;19910;42.652;23.332;2023-11-18T12:47:20;94080.13;;;4.32;82.29
23176;BME280;19910;42.652;23.332;2023-11-18T12:49:55;94059.19;;;4.20;82.24
23176;BME280;19910;42.652;23.332;2023-11-18T12:52:22;94076.28;;;4.11;82.29
23176;BME280;19910;42.652;23.332;2023-11-18T12:54:52;94057.47;;;4.24;81.80
23176;BME280;19910;42.652;23.332;2023-11-18T12:57:27;94058.41;;;4.20;81.94
23176;BME280;19910;42.652;23.332;2023-11-18T12:59:57;94071.25;;;4.09;82.92
23176;BME280;19910;42.652;23.332;2023-11-18T13:02:24;94065.09;;;3.95;83.38
23176;BME280;19910;42.652;23.332;2023-11-18T13:04:50;94058.81;;;4.00;83.46
23176;BME280;19910;42.652;23.332;2023-11-18T13:07:19;94065.75;;;4.14;83.02
23176;BME280;19910;42.652;23.332;2023-11-18T13:09:47;94062.69;;;4.21;82.05
23176;BME280;19910;42.652;23.332;2023-11-18T13:12:17;94060.88;;;4.16;82.61